sensor_id;sensor_type;location;lat;lon;timestamp;P1;durP1;ratioP1;P2;durP2;ratioP2
37065;SDS011;22981;43.080;25.550;2023-10-31T00:00:23;13.22;;;9.18;;
37065;SDS011;22981;43.080;25.550;2023-10-31T00:02:50;18.35;;;9.50;;
37065;SDS011;22981;43.080;25.550;2023-10-31T00:05:18;16.42;;;9.10;;
37065;SDS011;22981;43.080;25.550;2023-10-31T00:07:46;12.50;;;7.58;;
37065;SDS011;22981;43.080;25.550;2023-10-31T00:10:13;9.50;;;7.17;;
37065;SDS011;22981;43.080;25.550;2023-10-31T00:12:41;11.38;;;7.33;;
37065;SDS011;22981;43.080;25.550;2023-10-31T00:15:08;9.05;;;6.65;;
37065;SDS011;22981;43.080;25.550;2023-10-31T00:17:36;10.03;;;6.12;;
37065;SDS011;22981;43.080;25.550;2023-10-31T00:20:04;10.28;;;5.70;;
37065;SDS011;22981;43.080;25.550;2023-10-31T00:22:32;11.30;;;5.42;;
37065;SDS011;22981;43.080;25.550;2023-10-31T00:25:00;11.08;;;5.37;;
37065;SDS011;22981;43.080;25.550;2023-10-31T00:27:27;11.00;;;5.72;;
37065;SDS011;22981;43.080;25.550;2023-10-31T00:29:55;8.58;;;5.45;;
37065;SDS011;22981;43.080;25.550;2023-10-31T00:32:22;11.73;;;5.97;;
37065;SDS011;22981;43.080;25.550;2023-10-31T00:34:51;7.35;;;5.37;;
37065;SDS011;22981;43.080;25.550;2023-10-31T00:37:18;9.00;;;6.12;;
37065;SDS011;22981;43.080;25.550;2023-10-31T00:39:46;9.43;;;6.22;;
37065;SDS011;22981;43.080;25.550;2023-10-31T00:42:13;11.40;;;5.40;;
37065;SDS011;22981;43.080;25.550;2023-10-31T00:44:41;8.25;;;5.70;;
37065;SDS011;22981;43.080;25.550;2023-10-31T00:47:09;8.93;;;5.35;;
37065;SDS011;22981;43.080;25.550;2023-10-31T00:49:36;9.35;;;6.03;;
37065;SDS011;22981;43.080;25.550;2023-10-31T00:52:04;10.48;;;6.35;;
37065;SDS011;22981;43.080;25.550;2023-10-31T00:54:31;12.98;;;6.65;;
37065;SDS011;22981;43.080;25.550;2023-10-31T00:56:59;11.22;;;6.50;;
37065;SDS011;22981;43.080;25.550;2023-10-31T00:59:26;9.25;;;6.45;;
37065;SDS011;22981;43.080;25.550;2023-10-31T01:01:54;9.58;;;6.28;;
37065;SDS011;22981;43.080;25.550;2023-10-31T01:04:22;9.05;;;5.12;;
37065;SDS011;22981;43.080;25.550;2023-10-31T01:06:51;10.05;;;5.50;;
37065;SDS011;22981;43.080;25.550;2023-10-31T01:09:18;9.65;;;5.20;;
37065;SDS011;22981;43.080;25.550;2023-10-31T01:11:46;7.10;;;5.65;;
37065;SDS011;22981;43.080;25.550;2023-10-31T01:14:14;7.20;;;4.97;;
37065;SDS011;22981;43.080;25.550;2023-10-31T01:16:41;11.22;;;5.62;;
37065;SDS011;22981;43.080;25.550;2023-10-31T01:19:09;8.65;;;4.90;;
37065;SDS011;22981;43.080;25.550;2023-10-31T01:21:36;6.47;;;5.17;;
37065;SDS011;22981;43.080;25.550;2023-10-31T01:24:04;7.50;;;5.37;;
37065;SDS011;22981;43.080;25.550;2023-10-31T01:26:32;9.13;;;5.05;;
37065;SDS011;22981;43.080;25.550;2023-10-31T01:29:01;8.20;;;4.78;;
37065;SDS011;22981;43.080;25.550;2023-10-31T01:31:29;10.03;;;5.50;;
37065;SDS011;22981;43.080;25.550;2023-10-31T01:33:58;10.53;;;5.00;;
37065;SDS011;22981;43.080;25.550;2023-10-31T01:36:25;7.47;;;4.92;;
37065;SDS011;22981;43.080;25.550;2023-10-31T01:38:53;11.50;;;5.20;;
37065;SDS011;22981;43.080;25.550;2023-10-31T01:41:20;7.90;;;4.80;;
37065;SDS011;22981;43.080;25.550;2023-10-31T01:43:48;10.40;;;4.95;;
37065;SDS011;22981;43.080;25.550;2023-10-31T01:46:16;8.55;;;5.47;;
37065;SDS011;22981;43.080;25.550;2023-10-31T01:48:43;8.43;;;4.80;;
37065;SDS011;22981;43.080;25.550;2023-10-31T01:51:11;7.72;;;5.35;;
37065;SDS011;22981;43.080;25.550;2023-10-31T01:53:38;8.63;;;5.00;;
37065;SDS011;22981;43.080;25.550;2023-10-31T01:56:07;9.35;;;4.83;;
37065;SDS011;22981;43.080;25.550;2023-10-31T01:58:35;7.70;;;4.80;;
37065;SDS011;22981;43.080;25.550;2023-10-31T02:01:03;12.70;;;5.05;;
37065;SDS011;22981;43.080;25.550;2023-10-31T02:03:32;11.68;;;5.33;;
37065;SDS011;22981;43.080;25.550;2023-10-31T02:05:59;8.93;;;5.50;;
37065;SDS011;22981;43.080;25.550;2023-10-31T02:08:27;7.45;;;5.12;;
37065;SDS011;22981;43.080;25.550;2023-10-31T02:10:55;9.63;;;5.85;;
37065;SDS011;22981;43.080;25.550;2023-10-31T02:13:22;8.30;;;5.10;;
37065;SDS011;22981;43.080;25.550;2023-10-31T02:15:50;9.53;;;5.67;;
37065;SDS011;22981;43.080;25.550;2023-10-31T02:18:18;7.33;;;5.60;;
37065;SDS011;22981;43.080;25.550;2023-10-31T02:20:45;7.95;;;5.65;;
37065;SDS011;22981;43.080;25.550;2023-10-31T02:23:15;7.67;;;6.20;;
37065;SDS011;22981;43.080;25.550;2023-10-31T02:25:42;8.95;;;5.33;;
37065;SDS011;22981;43.080;25.550;2023-10-31T02:28:10;9.20;;;5.42;;
37065;SDS011;22981;43.080;25.550;2023-10-31T02:30:37;11.75;;;5.90;;
37065;SDS011;22981;43.080;25.550;2023-10-31T02:33:05;9.53;;;5.42;;
37065;SDS011;22981;43.080;25.550;2023-10-31T02:35:32;6.95;;;4.85;;
37065;SDS011;22981;43.080;25.550;2023-10-31T02:38:00;5.67;;;5.10;;
37065;SDS011;22981;43.080;25.550;2023-10-31T02:40:28;8.88;;;5.10;;
37065;SDS011;22981;43.080;25.550;2023-10-31T02:42:55;8.80;;;4.97;;
37065;SDS011;22981;43.080;25.550;2023-10-31T02:45:23;10.05;;;5.40;;
37065;SDS011;22981;43.080;25.550;2023-10-31T02:47:51;9.25;;;5.20;;
37065;SDS011;22981;43.080;25.550;2023-10-31T02:50:18;11.97;;;5.60;;
37065;SDS011;22981;43.080;25.550;2023-10-31T02:52:46;7.33;;;4.97;;
37065;SDS011;22981;43.080;25.550;2023-10-31T02:55:13;7.92;;;5.87;;
37065;SDS011;22981;43.080;25.550;2023-10-31T02:57:41;11.95;;;5.85;;
37065;SDS011;22981;43.080;25.550;2023-10-31T03:00:09;10.55;;;7.87;;
37065;SDS011;22981;43.080;25.550;2023-10-31T03:02:37;9.85;;;7.83;;
37065;SDS011;22981;43.080;25.550;2023-10-31T03:05:04;13.13;;;8.78;;
37065;SDS011;22981;43.080;25.550;2023-10-31T03:07:32;12.45;;;8.73;;
37065;SDS011;22981;43.080;25.550;2023-10-31T03:10:00;10.90;;;8.50;;
37065;SDS011;22981;43.080;25.550;2023-10-31T03:12:28;11.68;;;7.78;;
37065;SDS011;22981;43.080;25.550;2023-10-31T03:14:55;12.10;;;7.83;;
37065;SDS011;22981;43.080;25.550;2023-10-31T03:17:23;11.22;;;7.03;;
37065;SDS011;22981;43.080;25.550;2023-10-31T03:19:51;9.20;;;7.25;;
37065;SDS011;22981;43.080;25.550;2023-10-31T03:22:19;8.13;;;6.12;;
37065;SDS011;22981;43.080;25.550;2023-10-31T03:24:46;10.82;;;6.53;;
37065;SDS011;22981;43.080;25.550;2023-10-31T03:27:14;11.43;;;6.78;;
37065;SDS011;22981;43.080;25.550;2023-10-31T03:29:41;9.28;;;6.25;;
37065;SDS011;22981;43.080;25.550;2023-10-31T03:32:09;7.65;;;6.08;;
37065;SDS011;22981;43.080;25.550;2023-10-31T03:34:37;10.30;;;6.83;;
37065;SDS011;22981;43.080;25.550;2023-10-31T03:37:04;11.28;;;6.33;;
37065;SDS011;22981;43.080;25.550;2023-10-31T03:39:32;9.00;;;6.35;;
37065;SDS011;22981;43.080;25.550;2023-10-31T03:42:00;7.83;;;5.70;;
37065;SDS011;22981;43.080;25.550;2023-10-31T03:44:27;8.40;;;5.20;;
37065;SDS011;22981;43.080;25.550;2023-10-31T03:46:55;7.90;;;6.12;;
37065;SDS011;22981;43.080;25.550;2023-10-31T03:49:22;9.35;;;6.05;;
37065;SDS011;22981;43.080;25.550;2023-10-31T03:51:50;9.70;;;5.97;;
37065;SDS011;22981;43.080;25.550;2023-10-31T03:54:17;8.13;;;5.20;;
37065;SDS011;22981;43.080;25.550;2023-10-31T03:56:45;8.10;;;5.62;;
37065;SDS011;22981;43.080;25.550;2023-10-31T03:59:14;9.05;;;6.35;;
37065;SDS011;22981;43.080;25.550;2023-10-31T04:01:41;8.18;;;6.12;;
37065;SDS011;22981;43.080;25.550;2023-10-31T04:04:09;10.28;;;6.12;;
37065;SDS011;22981;43.080;25.550;2023-10-31T04:06:36;8.25;;;6.08;;
37065;SDS011;22981;43.080;25.550;2023-10-31T04:09:06;7.65;;;5.53;;
37065;SDS011;22981;43.080;25.550;2023-10-31T04:11:33;8.93;;;5.15;;
37065;SDS011;22981;43.080;25.550;2023-10-31T04:14:01;7.90;;;5.58;;
37065;SDS011;22981;43.080;25.550;2023-10-31T04:16:29;6.97;;;4.70;;
37065;SDS011;22981;43.080;25.550;2023-10-31T04:18:57;12.68;;;5.50;;
37065;SDS011;22981;43.080;25.550;2023-10-31T04:21:24;7.87;;;6.28;;
37065;SDS011;22981;43.080;25.550;2023-10-31T04:23:52;11.70;;;7.45;;
37065;SDS011;22981;43.080;25.550;2023-10-31T04:26:19;11.10;;;7.42;;
37065;SDS011;22981;43.080;25.550;2023-10-31T04:28:47;10.60;;;7.47;;
37065;SDS011;22981;43.080;25.550;2023-10-31T04:31:14;10.60;;;6.95;;
37065;SDS011;22981;43.080;25.550;2023-10-31T04:33:42;9.88;;;6.75;;
37065;SDS011;22981;43.080;25.550;2023-10-31T04:36:09;9.55;;;6.62;;
37065;SDS011;22981;43.080;25.550;2023-10-31T04:38:37;9.03;;;6.80;;
37065;SDS011;22981;43.080;25.550;2023-10-31T04:41:05;7.95;;;6.92;;
37065;SDS011;22981;43.080;25.550;2023-10-31T04:43:35;10.68;;;6.60;;
37065;SDS011;22981;43.080;25.550;2023-10-31T04:46:02;13.62;;;7.15;;
37065;SDS011;22981;43.080;25.550;2023-10-31T04:48:30;12.65;;;7.37;;
37065;SDS011;22981;43.080;25.550;2023-10-31T04:50:57;16.90;;;8.25;;
37065;SDS011;22981;43.080;25.550;2023-10-31T04:53:25;16.02;;;9.25;;
37065;SDS011;22981;43.080;25.550;2023-10-31T04:55:52;14.05;;;9.18;;
37065;SDS011;22981;43.080;25.550;2023-10-31T04:58:20;13.70;;;8.48;;
37065;SDS011;22981;43.080;25.550;2023-10-31T05:00:48;14.45;;;8.50;;
37065;SDS011;22981;43.080;25.550;2023-10-31T05:03:15;13.90;;;8.68;;
37065;SDS011;22981;43.080;25.550;2023-10-31T05:05:43;10.70;;;7.75;;
37065;SDS011;22981;43.080;25.550;2023-10-31T05:08:10;13.90;;;6.70;;
37065;SDS011;22981;43.080;25.550;2023-10-31T05:10:38;8.60;;;6.33;;
37065;SDS011;22981;43.080;25.550;2023-10-31T05:13:06;12.70;;;6.47;;
37065;SDS011;22981;43.080;25.550;2023-10-31T05:15:33;10.68;;;6.60;;
37065;SDS011;22981;43.080;25.550;2023-10-31T05:18:01;12.10;;;7.08;;
37065;SDS011;22981;43.080;25.550;2023-10-31T05:20:28;10.38;;;7.37;;
37065;SDS011;22981;43.080;25.550;2023-10-31T05:22:56;11.70;;;6.87;;
37065;SDS011;22981;43.080;25.550;2023-10-31T05:25:23;19.70;;;7.05;;
37065;SDS011;22981;43.080;25.550;2023-10-31T05:27:51;8.65;;;6.70;;
37065;SDS011;22981;43.080;25.550;2023-10-31T05:30:18;8.98;;;5.80;;
37065;SDS011;22981;43.080;25.550;2023-10-31T05:32:46;9.85;;;6.22;;
37065;SDS011;22981;43.080;25.550;2023-10-31T05:35:14;11.83;;;6.30;;
37065;SDS011;22981;43.080;25.550;2023-10-31T05:37:41;16.73;;;6.95;;
37065;SDS011;22981;43.080;25.550;2023-10-31T05:40:09;12.43;;;6.05;;
37065;SDS011;22981;43.080;25.550;2023-10-31T05:42:38;11.12;;;6.03;;
37065;SDS011;22981;43.080;25.550;2023-10-31T05:45:06;11.30;;;7.65;;
37065;SDS011;22981;43.080;25.550;2023-10-31T05:47:33;10.23;;;6.75;;
37065;SDS011;22981;43.080;25.550;2023-10-31T05:50:01;8.83;;;5.50;;
37065;SDS011;22981;43.080;25.550;2023-10-31T05:52:28;10.10;;;5.53;;
37065;SDS011;22981;43.080;25.550;2023-10-31T05:54:57;9.00;;;6.08;;
37065;SDS011;22981;43.080;25.550;2023-10-31T05:57:25;9.65;;;5.65;;
37065;SDS011;22981;43.080;25.550;2023-10-31T05:59:52;10.10;;;6.10;;
37065;SDS011;22981;43.080;25.550;2023-10-31T06:02:20;12.10;;;6.12;;
37065;SDS011;22981;43.080;25.550;2023-10-31T06:04:48;8.73;;;4.97;;
37065;SDS011;22981;43.080;25.550;2023-10-31T06:07:15;9.55;;;6.40;;
37065;SDS011;22981;43.080;25.550;2023-10-31T06:09:43;8.80;;;6.40;;
37065;SDS011;22981;43.080;25.550;2023-10-31T06:12:11;16.10;;;6.33;;
37065;SDS011;22981;43.080;25.550;2023-10-31T06:14:38;13.85;;;6.37;;
37065;SDS011;22981;43.080;25.550;2023-10-31T06:17:06;8.73;;;6.90;;
37065;SDS011;22981;43.080;25.550;2023-10-31T06:19:34;15.00;;;6.83;;
37065;SDS011;22981;43.080;25.550;2023-10-31T06:24:33;9.58;;;6.03;;
37065;SDS011;22981;43.080;25.550;2023-10-31T06:27:00;8.80;;;6.30;;
37065;SDS011;22981;43.080;25.550;2023-10-31T06:29:28;11.10;;;7.42;;
37065;SDS011;22981;43.080;25.550;2023-10-31T06:31:56;10.63;;;6.40;;
37065;SDS011;22981;43.080;25.550;2023-10-31T06:34:23;15.15;;;7.08;;
37065;SDS011;22981;43.080;25.550;2023-10-31T06:36:51;11.53;;;6.92;;
37065;SDS011;22981;43.080;25.550;2023-10-31T06:39:18;10.08;;;7.03;;
37065;SDS011;22981;43.080;25.550;2023-10-31T06:41:48;12.05;;;7.25;;
37065;SDS011;22981;43.080;25.550;2023-10-31T06:44:16;11.28;;;7.90;;
37065;SDS011;22981;43.080;25.550;2023-10-31T06:46:43;14.90;;;7.00;;
37065;SDS011;22981;43.080;25.550;2023-10-31T06:49:11;14.05;;;9.43;;
37065;SDS011;22981;43.080;25.550;2023-10-31T06:51:38;19.77;;;11.12;;
37065;SDS011;22981;43.080;25.550;2023-10-31T06:54:06;23.40;;;13.98;;
37065;SDS011;22981;43.080;25.550;2023-10-31T06:56:34;18.32;;;10.32;;
37065;SDS011;22981;43.080;25.550;2023-10-31T06:59:01;16.30;;;8.63;;
37065;SDS011;22981;43.080;25.550;2023-10-31T07:01:29;10.90;;;6.87;;
37065;SDS011;22981;43.080;25.550;2023-10-31T07:03:57;11.22;;;6.15;;
37065;SDS011;22981;43.080;25.550;2023-10-31T07:06:25;12.73;;;6.80;;
37065;SDS011;22981;43.080;25.550;2023-10-31T07:08:53;12.40;;;6.08;;
37065;SDS011;22981;43.080;25.550;2023-10-31T07:11:20;9.05;;;5.37;;
37065;SDS011;22981;43.080;25.550;2023-10-31T07:13:48;9.85;;;5.70;;
37065;SDS011;22981;43.080;25.550;2023-10-31T07:16:15;8.95;;;4.00;;
37065;SDS011;22981;43.080;25.550;2023-10-31T07:18:43;10.28;;;4.10;;
37065;SDS011;22981;43.080;25.550;2023-10-31T07:21:10;6.87;;;3.77;;
37065;SDS011;22981;43.080;25.550;2023-10-31T07:23:38;5.37;;;3.85;;
37065;SDS011;22981;43.080;25.550;2023-10-31T07:26:06;5.65;;;3.90;;
37065;SDS011;22981;43.080;25.550;2023-10-31T07:28:33;6.42;;;3.98;;
37065;SDS011;22981;43.080;25.550;2023-10-31T07:31:01;7.60;;;3.98;;
37065;SDS011;22981;43.080;25.550;2023-10-31T07:33:29;6.53;;;3.30;;
37065;SDS011;22981;43.080;25.550;2023-10-31T07:35:56;6.12;;;3.55;;
37065;SDS011;22981;43.080;25.550;2023-10-31T07:38:24;5.72;;;3.47;;
37065;SDS011;22981;43.080;25.550;2023-10-31T07:40:51;8.63;;;3.30;;
37065;SDS011;22981;43.080;25.550;2023-10-31T07:43:19;10.20;;;3.62;;
37065;SDS011;22981;43.080;25.550;2023-10-31T07:45:47;9.90;;;4.15;;
37065;SDS011;22981;43.080;25.550;2023-10-31T07:48:14;13.85;;;4.53;;
37065;SDS011;22981;43.080;25.550;2023-10-31T07:50:42;12.65;;;5.25;;
37065;SDS011;22981;43.080;25.550;2023-10-31T07:53:09;10.90;;;5.08;;
37065;SDS011;22981;43.080;25.550;2023-10-31T07:55:37;11.18;;;5.60;;
37065;SDS011;22981;43.080;25.550;2023-10-31T07:58:05;8.83;;;4.30;;
37065;SDS011;22981;43.080;25.550;2023-10-31T08:00:34;11.18;;;5.42;;
37065;SDS011;22981;43.080;25.550;2023-10-31T08:03:03;15.13;;;6.03;;
37065;SDS011;22981;43.080;25.550;2023-10-31T08:05:31;14.30;;;6.75;;
37065;SDS011;22981;43.080;25.550;2023-10-31T08:07:59;12.60;;;7.10;;
37065;SDS011;22981;43.080;25.550;2023-10-31T08:10:27;18.42;;;8.68;;
37065;SDS011;22981;43.080;25.550;2023-10-31T08:12:55;19.05;;;9.93;;
37065;SDS011;22981;43.080;25.550;2023-10-31T08:15:22;16.02;;;8.00;;
37065;SDS011;22981;43.080;25.550;2023-10-31T08:17:50;16.17;;;8.20;;
37065;SDS011;22981;43.080;25.550;2023-10-31T08:20:17;19.12;;;10.43;;
37065;SDS011;22981;43.080;25.550;2023-10-31T08:22:45;22.27;;;9.25;;
37065;SDS011;22981;43.080;25.550;2023-10-31T08:25:12;22.37;;;10.13;;
37065;SDS011;22981;43.080;25.550;2023-10-31T08:27:40;16.97;;;8.00;;
37065;SDS011;22981;43.080;25.550;2023-10-31T08:30:08;21.40;;;9.25;;
37065;SDS011;22981;43.080;25.550;2023-10-31T08:32:35;16.70;;;8.00;;
37065;SDS011;22981;43.080;25.550;2023-10-31T08:35:03;13.65;;;6.35;;
37065;SDS011;22981;43.080;25.550;2023-10-31T08:37:31;12.35;;;7.17;;
37065;SDS011;22981;43.080;25.550;2023-10-31T08:39:58;14.00;;;7.95;;
37065;SDS011;22981;43.080;25.550;2023-10-31T08:42:28;17.40;;;10.35;;
37065;SDS011;22981;43.080;25.550;2023-10-31T08:44:55;18.25;;;9.88;;
37065;SDS011;22981;43.080;25.550;2023-10-31T08:47:23;11.50;;;6.65;;
37065;SDS011;22981;43.080;25.550;2023-10-31T08:49:50;12.58;;;4.30;;
37065;SDS011;22981;43.080;25.550;2023-10-31T08:52:18;6.70;;;3.87;;
37065;SDS011;22981;43.080;25.550;2023-10-31T08:54:47;9.58;;;3.98;;
37065;SDS011;22981;43.080;25.550;2023-10-31T08:57:15;8.50;;;3.65;;
37065;SDS011;22981;43.080;25.550;2023-10-31T08:59:42;19.77;;;10.72;;
37065;SDS011;22981;43.080;25.550;2023-10-31T09:02:10;5.22;;;3.22;;
37065;SDS011;22981;43.080;25.550;2023-10-31T09:04:38;10.23;;;6.00;;
37065;SDS011;22981;43.080;25.550;2023-10-31T09:07:05;8.55;;;3.25;;
37065;SDS011;22981;43.080;25.550;2023-10-31T09:09:33;8.23;;;2.52;;
37065;SDS011;22981;43.080;25.550;2023-10-31T09:12:00;7.83;;;3.40;;
37065;SDS011;22981;43.080;25.550;2023-10-31T09:14:28;7.87;;;2.85;;
37065;SDS011;22981;43.080;25.550;2023-10-31T09:16:55;6.83;;;4.22;;
37065;SDS011;22981;43.080;25.550;2023-10-31T09:19:23;4.97;;;3.37;;
37065;SDS011;22981;43.080;25.550;2023-10-31T09:21:50;8.88;;;3.30;;
37065;SDS011;22981;43.080;25.550;2023-10-31T09:24:18;6.55;;;3.02;;
37065;SDS011;22981;43.080;25.550;2023-10-31T09:26:46;8.95;;;2.72;;
37065;SDS011;22981;43.080;25.550;2023-10-31T09:29:13;6.90;;;2.20;;
37065;SDS011;22981;43.080;25.550;2023-10-31T09:31:41;6.80;;;3.20;;
37065;SDS011;22981;43.080;25.550;2023-10-31T09:34:08;5.05;;;2.37;;
37065;SDS011;22981;43.080;25.550;2023-10-31T09:36:39;4.85;;;2.62;;
37065;SDS011;22981;43.080;25.550;2023-10-31T09:39:06;5.28;;;2.42;;
37065;SDS011;22981;43.080;25.550;2023-10-31T09:41:33;5.65;;;2.70;;
37065;SDS011;22981;43.080;25.550;2023-10-31T09:44:01;5.80;;;2.42;;
37065;SDS011;22981;43.080;25.550;2023-10-31T09:46:29;4.12;;;1.80;;
37065;SDS011;22981;43.080;25.550;2023-10-31T09:48:56;5.20;;;1.90;;
37065;SDS011;22981;43.080;25.550;2023-10-31T09:51:24;4.62;;;1.70;;
37065;SDS011;22981;43.080;25.550;2023-10-31T09:53:53;4.47;;;1.90;;
37065;SDS011;22981;43.080;25.550;2023-10-31T09:56:23;3.98;;;1.35;;
37065;SDS011;22981;43.080;25.550;2023-10-31T09:58:52;5.75;;;1.40;;
37065;SDS011;22981;43.080;25.550;2023-10-31T10:01:20;3.95;;;1.40;;
37065;SDS011;22981;43.080;25.550;2023-10-31T10:03:48;4.37;;;1.55;;
37065;SDS011;22981;43.080;25.550;2023-10-31T10:06:16;3.85;;;1.47;;
37065;SDS011;22981;43.080;25.550;2023-10-31T10:08:46;2.55;;;1.15;;
37065;SDS011;22981;43.080;25.550;2023-10-31T10:11:13;4.65;;;1.60;;
37065;SDS011;22981;43.080;25.550;2023-10-31T10:13:41;4.47;;;1.15;;
37065;SDS011;22981;43.080;25.550;2023-10-31T10:16:09;2.83;;;1.02;;
37065;SDS011;22981;43.080;25.550;2023-10-31T10:18:36;4.12;;;1.12;;
37065;SDS011;22981;43.080;25.550;2023-10-31T10:21:05;2.10;;;1.10;;
37065;SDS011;22981;43.080;25.550;2023-10-31T10:23:33;3.22;;;1.42;;
37065;SDS011;22981;43.080;25.550;2023-10-31T10:26:01;2.92;;;1.22;;
37065;SDS011;22981;43.080;25.550;2023-10-31T10:28:30;5.25;;;1.37;;
37065;SDS011;22981;43.080;25.550;2023-10-31T10:30:58;3.17;;;1.30;;
37065;SDS011;22981;43.080;25.550;2023-10-31T10:33:26;2.80;;;1.30;;
37065;SDS011;22981;43.080;25.550;2023-10-31T10:35:54;2.05;;;1.05;;
37065;SDS011;22981;43.080;25.550;2023-10-31T10:38:22;2.47;;;1.42;;
37065;SDS011;22981;43.080;25.550;2023-10-31T10:40:50;3.75;;;1.50;;
37065;SDS011;22981;43.080;25.550;2023-10-31T10:43:23;6.45;;;1.20;;
37065;SDS011;22981;43.080;25.550;2023-10-31T10:45:57;3.02;;;1.22;;
37065;SDS011;22981;43.080;25.550;2023-10-31T10:48:26;5.37;;;1.52;;
37065;SDS011;22981;43.080;25.550;2023-10-31T10:50:57;3.25;;;1.50;;
37065;SDS011;22981;43.080;25.550;2023-10-31T10:53:35;1.70;;;0.93;;
37065;SDS011;22981;43.080;25.550;2023-10-31T10:56:12;4.90;;;1.65;;
37065;SDS011;22981;43.080;25.550;2023-10-31T10:58:41;2.90;;;1.27;;
37065;SDS011;22981;43.080;25.550;2023-10-31T11:01:12;5.25;;;1.82;;
37065;SDS011;22981;43.080;25.550;2023-10-31T11:03:40;4.00;;;1.72;;
37065;SDS011;22981;43.080;25.550;2023-10-31T11:06:08;3.40;;;1.40;;
37065;SDS011;22981;43.080;25.550;2023-10-31T11:08:36;2.40;;;1.22;;
37065;SDS011;22981;43.080;25.550;2023-10-31T11:11:04;3.67;;;1.47;;
37065;SDS011;22981;43.080;25.550;2023-10-31T11:13:32;5.08;;;1.60;;
37065;SDS011;22981;43.080;25.550;2023-10-31T11:16:02;5.70;;;2.30;;
37065;SDS011;22981;43.080;25.550;2023-10-31T11:18:31;4.78;;;1.90;;
37065;SDS011;22981;43.080;25.550;2023-10-31T11:20:59;6.25;;;1.90;;
37065;SDS011;22981;43.080;25.550;2023-10-31T11:23:27;2.80;;;1.25;;
37065;SDS011;22981;43.080;25.550;2023-10-31T11:25:55;4.42;;;1.60;;
37065;SDS011;22981;43.080;25.550;2023-10-31T11:28:22;3.25;;;1.55;;
37065;SDS011;22981;43.080;25.550;2023-10-31T11:30:51;4.85;;;1.65;;
37065;SDS011;22981;43.080;25.550;2023-10-31T11:33:20;5.58;;;1.57;;
37065;SDS011;22981;43.080;25.550;2023-10-31T11:35:51;2.95;;;1.90;;
37065;SDS011;22981;43.080;25.550;2023-10-31T11:38:27;6.97;;;2.00;;
37065;SDS011;22981;43.080;25.550;2023-10-31T11:43:21;4.92;;;2.20;;
37065;SDS011;22981;43.080;25.550;2023-10-31T11:45:49;6.40;;;1.80;;
37065;SDS011;22981;43.080;25.550;2023-10-31T11:48:17;5.47;;;2.00;;
37065;SDS011;22981;43.080;25.550;2023-10-31T11:50:47;3.47;;;1.77;;
37065;SDS011;22981;43.080;25.550;2023-10-31T11:53:15;5.65;;;1.92;;
37065;SDS011;22981;43.080;25.550;2023-10-31T11:55:43;6.12;;;2.08;;
37065;SDS011;22981;43.080;25.550;2023-10-31T11:58:18;5.90;;;2.00;;
37065;SDS011;22981;43.080;25.550;2023-10-31T12:03:10;6.05;;;1.72;;
37065;SDS011;22981;43.080;25.550;2023-10-31T12:05:38;4.50;;;2.02;;
37065;SDS011;22981;43.080;25.550;2023-10-31T12:08:06;4.92;;;1.82;;
37065;SDS011;22981;43.080;25.550;2023-10-31T12:10:33;5.08;;;1.70;;
37065;SDS011;22981;43.080;25.550;2023-10-31T12:13:01;5.40;;;2.20;;
37065;SDS011;22981;43.080;25.550;2023-10-31T12:15:28;3.42;;;1.90;;
37065;SDS011;22981;43.080;25.550;2023-10-31T12:17:59;5.47;;;2.10;;
37065;SDS011;22981;43.080;25.550;2023-10-31T12:20:27;4.65;;;2.00;;
37065;SDS011;22981;43.080;25.550;2023-10-31T12:23:03;3.65;;;1.60;;
37065;SDS011;22981;43.080;25.550;2023-10-31T12:25:31;6.20;;;2.17;;
37065;SDS011;22981;43.080;25.550;2023-10-31T12:28:00;6.50;;;2.27;;
37065;SDS011;22981;43.080;25.550;2023-10-31T12:30:27;6.03;;;1.90;;
37065;SDS011;22981;43.080;25.550;2023-10-31T12:32:55;6.12;;;1.82;;
37065;SDS011;22981;43.080;25.550;2023-10-31T12:35:24;6.05;;;2.40;;
37065;SDS011;22981;43.080;25.550;2023-10-31T12:37:54;6.00;;;2.05;;
37065;SDS011;22981;43.080;25.550;2023-10-31T12:40:22;8.13;;;2.10;;
37065;SDS011;22981;43.080;25.550;2023-10-31T12:42:51;4.97;;;1.92;;
37065;SDS011;22981;43.080;25.550;2023-10-31T12:45:19;11.95;;;2.33;;
37065;SDS011;22981;43.080;25.550;2023-10-31T12:48:02;8.40;;;1.90;;
37065;SDS011;22981;43.080;25.550;2023-10-31T12:50:31;3.30;;;1.65;;
37065;SDS011;22981;43.080;25.550;2023-10-31T12:53:01;6.72;;;2.22;;
37065;SDS011;22981;43.080;25.550;2023-10-31T12:55:30;5.90;;;2.25;;
37065;SDS011;22981;43.080;25.550;2023-10-31T12:57:59;8.40;;;2.87;;
37065;SDS011;22981;43.080;25.550;2023-10-31T13:00:31;4.80;;;2.30;;
37065;SDS011;22981;43.080;25.550;2023-10-31T13:03:06;6.72;;;2.02;;
37065;SDS011;22981;43.080;25.550;2023-10-31T13:05:35;4.90;;;1.90;;
37065;SDS011;22981;43.080;25.550;2023-10-31T13:08:04;3.75;;;2.10;;
37065;SDS011;22981;43.080;25.550;2023-10-31T13:10:35;6.00;;;1.77;;
37065;SDS011;22981;43.080;25.550;2023-10-31T13:13:02;7.72;;;1.82;;
37065;SDS011;22981;43.080;25.550;2023-10-31T13:15:30;8.08;;;1.80;;
37065;SDS011;22981;43.080;25.550;2023-10-31T13:17:58;5.92;;;2.00;;
37065;SDS011;22981;43.080;25.550;2023-10-31T13:20:26;4.65;;;1.90;;
37065;SDS011;22981;43.080;25.550;2023-10-31T13:22:54;6.10;;;2.42;;
37065;SDS011;22981;43.080;25.550;2023-10-31T13:25:23;5.97;;;2.50;;
37065;SDS011;22981;43.080;25.550;2023-10-31T13:27:50;5.10;;;2.20;;
37065;SDS011;22981;43.080;25.550;2023-10-31T13:30:18;6.50;;;2.17;;
37065;SDS011;22981;43.080;25.550;2023-10-31T13:32:46;4.67;;;2.42;;
37065;SDS011;22981;43.080;25.550;2023-10-31T13:35:14;6.33;;;2.83;;
37065;SDS011;22981;43.080;25.550;2023-10-31T13:37:41;5.17;;;2.22;;
37065;SDS011;22981;43.080;25.550;2023-10-31T13:40:09;10.08;;;2.20;;
37065;SDS011;22981;43.080;25.550;2023-10-31T13:42:38;7.35;;;2.10;;
37065;SDS011;22981;43.080;25.550;2023-10-31T13:45:06;7.70;;;2.67;;
37065;SDS011;22981;43.080;25.550;2023-10-31T13:47:33;4.17;;;1.95;;
37065;SDS011;22981;43.080;25.550;2023-10-31T13:50:03;3.65;;;1.90;;
37065;SDS011;22981;43.080;25.550;2023-10-31T13:52:30;4.22;;;2.10;;
37065;SDS011;22981;43.080;25.550;2023-10-31T13:54:58;4.53;;;1.85;;
37065;SDS011;22981;43.080;25.550;2023-10-31T13:57:26;7.62;;;2.20;;
37065;SDS011;22981;43.080;25.550;2023-10-31T13:59:53;4.85;;;2.10;;
37065;SDS011;22981;43.080;25.550;2023-10-31T14:02:21;8.43;;;2.20;;
37065;SDS011;22981;43.080;25.550;2023-10-31T14:04:48;5.53;;;2.40;;
37065;SDS011;22981;43.080;25.550;2023-10-31T14:07:19;9.78;;;2.47;;
37065;SDS011;22981;43.080;25.550;2023-10-31T14:09:47;14.47;;;3.95;;
37065;SDS011;22981;43.080;25.550;2023-10-31T14:12:15;13.62;;;8.20;;
37065;SDS011;22981;43.080;25.550;2023-10-31T14:14:43;10.23;;;4.40;;
37065;SDS011;22981;43.080;25.550;2023-10-31T14:17:12;8.43;;;2.95;;
37065;SDS011;22981;43.080;25.550;2023-10-31T14:19:42;5.28;;;2.30;;
37065;SDS011;22981;43.080;25.550;2023-10-31T14:22:11;5.30;;;2.47;;
37065;SDS011;22981;43.080;25.550;2023-10-31T14:24:39;7.97;;;3.30;;
37065;SDS011;22981;43.080;25.550;2023-10-31T14:27:07;7.60;;;2.15;;
37065;SDS011;22981;43.080;25.550;2023-10-31T14:29:35;3.80;;;2.37;;
37065;SDS011;22981;43.080;25.550;2023-10-31T14:32:06;6.30;;;2.77;;
37065;SDS011;22981;43.080;25.550;2023-10-31T14:34:34;6.55;;;2.83;;
37065;SDS011;22981;43.080;25.550;2023-10-31T14:37:02;9.90;;;2.72;;
37065;SDS011;22981;43.080;25.550;2023-10-31T14:39:31;4.85;;;2.77;;
37065;SDS011;22981;43.080;25.550;2023-10-31T14:41:59;6.92;;;2.65;;